Time;durP1;ratioP1;P1;durP2;ratioP2;P2;SDS_P1;SDS_P2;PMS_P1;PMS_P2;Temp;Humidity;BMP_temperature;BMP_pressure;BME280_temperature;BME280_humidity;BME280_pressure;Samples;Min_cycle;Max_cycle;Signal;HPM_P1;HPM_P2
2022/06/02 00:00:09;;;;;;;;;;;9.50;99.90;;;;;;5109342;28;19911;-75
2022/06/02 00:02:34;;;;;;;;;;;9.40;99.90;;;;;;5109416;28;19990;-74
2022/06/02 00:05:18;;;;;;;;;;;9.30;99.90;;;;;;5109011;28;20276;-74
2022/06/02 00:07:46;;;;;;;;;;;9.40;99.90;;;;;;5111998;28;19916;-73
2022/06/02 00:10:35;;;;;;;;;;;9.40;99.90;;;;;;5112140;28;20253;-73
2022/06/02 00:13:06;;;;;;;;;;;9.40;99.90;;;;;;5112304;28;19907;-73
2022/06/02 00:15:37;;;;;;;;;;;9.40;99.90;;;;;;5112101;28;20696;-73
2022/06/02 00:18:16;;;;;;;;;;;9.40;99.90;;;;;;5112171;28;19912;-73
2022/06/02 00:20:41;;;;;;;;;;;9.30;99.90;;;;;;5110884;28;19910;-73
2022/06/02 00:23:10;;;;;;;;;;;9.30;99.90;;;;;;5109429;28;19912;-74
2022/06/02 00:25:39;;;;;;;;;;;9.40;99.90;;;;;;5109083;28;19998;-73
2022/06/02 00:28:29;;;;;;;;;;;9.40;99.90;;;;;;5109150;28;20329;-73
2022/06/02 00:30:56;;;;;;;;;;;9.30;99.90;;;;;;5110602;28;20010;-73
2022/06/02 00:33:34;;;;;;;;;;;9.00;99.90;;;;;;5111796;28;20329;-73
2022/06/02 00:36:10;;;;;;;;;;;8.80;99.90;;;;;;5111430;28;19927;-73
2022/06/02 00:38:37;;;;;;;;;;;8.60;99.90;;;;;;5111585;28;19969;-72
2022/06/02 00:41:06;;;;;;;;;;;8.50;99.90;;;;;;5111738;28;20410;-73
2022/06/02 00:43:42;;;;;;;;;;;8.40;99.90;;;;;;5111583;28;19904;-73
2022/06/02 00:46:14;;;;;;;;;;;8.30;99.90;;;;;;5111652;28;19999;-73
2022/06/02 00:49:03;;;;;;;;;;;8.30;99.90;;;;;;5111336;28;19908;-73
2022/06/02 00:51:39;;;;;;;;;;;8.30;99.90;;;;;;5111050;28;20009;-73
2022/06/02 01:00:05;;;;;;;;;;;8.30;99.90;;;;;;5111349;28;19948;-73
2022/06/02 01:02:40;;;;;;;;;;;8.40;99.90;;;;;;5109467;28;20113;-74
2022/06/02 01:05:06;;;;;;;;;;;8.40;99.90;;;;;;5107783;28;20368;-73
2022/06/02 01:07:34;;;;;;;;;;;8.40;99.90;;;;;;5108261;28;19910;-73
2022/06/02 01:10:18;;;;;;;;;;;8.50;99.90;;;;;;5111068;28;19916;-73
2022/06/02 01:12:43;;;;;;;;;;;8.50;99.90;;;;;;5111397;28;19908;-74
2022/06/02 01:15:27;;;;;;;;;;;8.40;99.90;;;;;;5111271;28;19915;-73
2022/06/02 01:17:52;;;;;;;;;;;8.40;99.90;;;;;;5110541;28;19903;-73
2022/06/02 01:20:31;;;;;;;;;;;8.50;99.90;;;;;;5111023;28;19919;-75
2022/06/02 01:23:02;;;;;;;;;;;8.40;99.90;;;;;;5111034;28;19911;-74
2022/06/02 01:25:30;;;;;;;;;;;8.40;99.90;;;;;;5111021;28;19908;-73
2022/06/02 01:28:07;;;;;;;;;;;8.50;99.90;;;;;;5110767;28;19914;-73
2022/06/02 01:30:45;;;;;;;;;;;8.50;99.90;;;;;;5109041;28;19986;-73
2022/06/02 01:33:22;;;;;;;;;;;8.50;99.90;;;;;;5111036;28;19909;-73
2022/06/02 01:36:04;;;;;;;;;;;8.50;99.90;;;;;;5110585;28;19916;-72
2022/06/02 01:38:32;;;;;;;;;;;8.50;99.90;;;;;;5110766;28;19907;-72
2022/06/02 01:41:10;;;;;;;;;;;8.50;99.90;;;;;;5110828;28;20291;-73
2022/06/02 01:43:38;;;;;;;;;;;8.50;99.90;;;;;;5110785;28;20267;-73
2022/06/02 01:46:15;;;;;;;;;;;8.60;99.90;;;;;;5109615;28;19939;-73
2022/06/02 01:48:48;;;;;;;;;;;8.50;99.90;;;;;;5109152;28;20476;-74
2022/06/02 01:51:20;;;;;;;;;;;8.60;99.90;;;;;;5107926;28;19911;-74
2022/06/02 01:53:52;;;;;;;;;;;8.60;99.90;;;;;;5108113;28;19998;-74
2022/06/02 01:56:18;;;;;;;;;;;8.60;99.90;;;;;;5107678;28;19919;-74
2022/06/02 01:58:56;;;;;;;;;;;8.60;99.90;;;;;;5107920;28;19911;-74
2022/06/02 02:01:41;;;;;;;;;;;8.50;99.90;;;;;;5106220;28;19910;-74
2022/06/02 02:04:13;;;;;;;;;;;8.50;99.90;;;;;;5108306;28;19942;-74
2022/06/02 02:06:38;;;;;;;;;;;8.50;99.90;;;;;;5110731;28;19904;-73
2022/06/02 02:09:30;;;;;;;;;;;8.50;99.90;;;;;;5110513;28;19964;-73
2022/06/02 02:11:57;;;;;;;;;;;8.40;99.90;;;;;;5086351;28;19903;-74
2022/06/02 02:14:25;;;;;;;;;;;8.20;99.90;;;;;;5110431;28;19908;-73
2022/06/02 02:16:54;;;;;;;;;;;8.00;99.90;;;;;;5110638;28;19912;-73
2022/06/02 02:19:38;;;;;;;;;;;7.80;99.90;;;;;;5110444;28;20336;-74
2022/06/02 02:22:09;;;;;;;;;;;7.80;99.90;;;;;;5110415;28;19911;-74
2022/06/02 02:24:44;;;;;;;;;;;7.70;99.90;;;;;;5110414;28;20006;-74
2022/06/02 02:27:13;;;;;;;;;;;7.70;99.90;;;;;;5110352;28;19911;-74
2022/06/02 02:29:43;;;;;;;;;;;7.70;99.90;;;;;;5110813;28;20288;-74
2022/06/02 02:32:27;;;;;;;;;;;7.70;99.90;;;;;;5114465;28;19903;-74
2022/06/02 02:34:59;;;;;;;;;;;7.70;99.90;;;;;;5113291;28;19915;-73
2022/06/02 02:37:55;;;;;;;;;;;7.60;99.90;;;;;;5110982;28;19904;-74
2022/06/02 02:40:29;;;;;;;;;;;7.40;99.90;;;;;;5097375;28;19912;-72
2022/06/02 02:42:58;;;;;;;;;;;7.30;99.90;;;;;;5111066;28;19910;-73
2022/06/02 02:45:33;;;;;;;;;;;7.20;99.90;;;;;;5112144;28;20044;-73
2022/06/02 02:48:11;;;;;;;;;;;7.10;99.90;;;;;;5112640;28;19938;-73
2022/06/02 02:50:46;;;;;;;;;;;7.20;99.90;;;;;;5113821;28;20003;-74
2022/06/02 02:53:24;;;;;;;;;;;7.20;99.90;;;;;;5113714;28;19981;-74
2022/06/02 02:55:49;;;;;;;;;;;7.20;99.90;;;;;;5113704;28;19930;-74
2022/06/02 02:58:28;;;;;;;;;;;7.20;99.90;;;;;;5113624;28;19908;-74
2022/06/02 03:01:04;;;;;;;;;;;7.30;99.90;;;;;;5114175;28;19973;-74
2022/06/02 03:03:49;;;;;;;;;;;7.30;99.90;;;;;;5113862;28;20004;-75
2022/06/02 03:06:20;;;;;;;;;;;7.30;99.90;;;;;;5113323;28;20383;-73
2022/06/02 03:08:49;;;;;;;;;;;7.20;99.90;;;;;;5113559;28;19956;-73
2022/06/02 03:11:30;;;;;;;;;;;7.20;99.90;;;;;;5113722;28;19904;-75
2022/06/02 03:13:55;;;;;;;;;;;7.10;99.90;;;;;;5113458;28;19904;-73
2022/06/02 03:16:22;;;;;;;;;;;7.10;99.90;;;;;;5113262;28;19919;-74
2022/06/02 03:18:48;;;;;;;;;;;7.10;99.90;;;;;;5113324;28;19907;-73
2022/06/02 03:21:23;;;;;;;;;;;7.10;99.90;;;;;;5113335;28;19911;-73
2022/06/02 03:23:55;;;;;;;;;;;7.10;99.90;;;;;;5113115;28;19911;-74
2022/06/02 03:26:30;;;;;;;;;;;7.00;99.90;;;;;;5113385;28;19915;-74
2022/06/02 03:29:05;;;;;;;;;;;7.00;99.90;;;;;;5113253;28;19910;-73
2022/06/02 03:31:42;;;;;;;;;;;7.00;99.90;;;;;;5112741;28;19908;-74
2022/06/02 03:34:13;;;;;;;;;;;7.00;99.90;;;;;;5112875;28;19899;-73
2022/06/02 03:36:43;;;;;;;;;;;7.10;99.90;;;;;;5092231;28;20002;-72
2022/06/02 03:39:13;;;;;;;;;;;7.10;99.90;;;;;;5092602;28;19990;-73
2022/06/02 03:41:58;;;;;;;;;;;7.10;99.90;;;;;;5092007;28;19908;-73
2022/06/02 03:44:47;;;;;;;;;;;7.10;99.90;;;;;;5092607;28;20002;-74
2022/06/02 03:47:12;;;;;;;;;;;7.10;99.90;;;;;;5086545;28;19911;-74
2022/06/02 03:49:44;;;;;;;;;;;7.10;99.90;;;;;;5102524;28;19904;-74
2022/06/02 03:52:15;;;;;;;;;;;7.00;99.90;;;;;;5112462;28;20359;-74
2022/06/02 03:54:43;;;;;;;;;;;;;;;;;;5111411;28;19903;-73
2022/06/02 03:57:09;;;;;;;;;;;;;;;;;;5112632;28;19908;-73
2022/06/02 03:59:34;;;;;;;;;;;;;;;;;;5112456;28;20292;-72
2022/06/02 04:02:00;;;;;;;;;;;;;;;;;;5112436;28;20286;-73
2022/06/02 04:04:26;;;;;;;;;;;;;;;;;;5112417;28;19911;-73
2022/06/02 04:06:52;;;;;;;;;;;;;;;;;;5112273;28;19914;-73
2022/06/02 04:09:18;;;;;;;;;;;;;;;;;;5112231;28;20326;-74
2022/06/02 04:14:28;;;;;;;;;;;;;;;;;;5112239;28;19969;-73
2022/06/02 04:16:54;;;;;;;;;;;;;;;;;;5109615;28;20427;-73
2022/06/02 04:22:05;;;;;;;;;;;;;;;;;;5110917;28;19915;-73
2022/06/02 04:24:31;;;;;;;;;;;;;;;;;;5112238;28;19900;-74
2022/06/02 04:26:57;;;;;;;;;;;;;;;;;;5112318;28;20372;-73
2022/06/02 04:29:23;;;;;;;;;;;;;;;;;;5111784;28;19906;-73
2022/06/02 04:31:51;;;;;;;;;;;6.90;99.90;;;;;;5109792;28;19903;-73
2022/06/02 04:34:25;;;;;;;;;;;7.90;99.90;;;;;;5108731;28;19960;-74
2022/06/02 04:37:00;;;;;;;;;;;8.00;99.90;;;;;;5109026;28;19923;-75
2022/06/02 04:39:26;;;;;;;;;;;8.10;99.90;;;;;;5111744;28;19914;-74
2022/06/02 04:42:03;;;;;;;;;;;8.10;99.90;;;;;;5111757;28;20002;-74
2022/06/02 04:44:44;;;;;;;;;;;8.10;99.90;;;;;;5111682;28;20364;-73
2022/06/02 04:47:28;;;;;;;;;;;8.00;99.90;;;;;;5111852;28;19907;-73
2022/06/02 04:49:57;;;;;;;;;;;8.00;99.90;;;;;;5111304;28;19949;-73
2022/06/02 04:52:29;;;;;;;;;;;8.10;99.90;;;;;;5110605;28;20324;-75
2022/06/02 04:55:10;;;;;;;;;;;8.10;99.90;;;;;;5111065;28;19915;-73
2022/06/02 04:57:39;;;;;;;;;;;8.00;99.90;;;;;;5111499;28;19911;-73
2022/06/02 05:00:23;;;;;;;;;;;7.90;99.90;;;;;;5111508;28;20006;-73
2022/06/02 05:03:05;;;;;;;;;;;7.80;99.90;;;;;;5108329;28;20266;-74
2022/06/02 05:05:35;;;;;;;;;;;7.70;99.90;;;;;;5107946;28;19927;-74
2022/06/02 05:08:06;;;;;;;;;;;7.70;99.90;;;;;;5109840;28;19944;-73
2022/06/02 05:10:35;;;;;;;;;;;7.60;99.90;;;;;;5111396;28;19983;-73
2022/06/02 05:13:06;;;;;;;;;;;7.70;99.90;;;;;;5111218;28;19994;-73
2022/06/02 05:15:50;;;;;;;;;;;7.70;99.90;;;;;;5110952;28;19919;-73
2022/06/02 05:18:35;;;;;;;;;;;7.70;99.90;;;;;;5108296;28;19991;-74
2022/06/02 05:21:00;;;;;;;;;;;7.70;99.90;;;;;;5108070;28;19912;-74
2022/06/02 05:23:41;;;;;;;;;;;7.80;99.90;;;;;;5107758;28;19919;-73
2022/06/02 05:26:06;;;;;;;;;;;7.90;99.90;;;;;;5107451;28;19915;-74
2022/06/02 05:28:47;;;;;;;;;;;8.00;99.90;;;;;;5107994;28;19904;-74
2022/06/02 05:31:40;;;;;;;;;;;8.10;99.90;;;;;;5107882;28;19961;-74
2022/06/02 05:34:05;;;;;;;;;;;8.30;99.90;;;;;;5107716;28;19955;-74
2022/06/02 05:36:47;;;;;;;;;;;8.40;99.90;;;;;;5107331;28;19963;-74
2022/06/02 05:39:12;;;;;;;;;;;8.50;99.90;;;;;;5107057;28;19914;-75
2022/06/02 05:41:38;;;;;;;;;;;;;;;;;;5108714;28;19998;-74
2022/06/02 05:44:04;;;;;;;;;;;;;;;;;;5110908;28;19953;-74
2022/06/02 05:46:35;;;;;;;;;;;8.60;99.90;;;;;;5110926;28;19911;-74
2022/06/02 05:49:01;;;;;;;;;;;9.00;99.90;;;;;;5110711;28;19918;-74
2022/06/02 05:51:27;;;;;;;;;;;;;;;;;;5109302;28;19994;-74
2022/06/02 05:53:53;;;;;;;;;;;;;;;;;;5107868;28;20225;-74
2022/06/02 05:56:20;;;;;;;;;;;;;;;;;;5108080;28;20427;-74
2022/06/02 05:58:54;;;;;;;;;;;9.20;99.90;;;;;;5110966;28;19904;-72
2022/06/02 06:01:32;;;;;;;;;;;9.70;99.90;;;;;;5111303;28;19956;-72
2022/06/02 06:04:16;;;;;;;;;;;9.80;99.90;;;;;;5111733;28;19910;-74
2022/06/02 06:06:45;;;;;;;;;;;9.80;99.90;;;;;;5111446;28;19911;-73
2022/06/02 06:09:22;;;;;;;;;;;9.90;99.90;;;;;;5111748;28;20292;-73
2022/06/02 06:12:06;;;;;;;;;;;9.90;99.90;;;;;;5114895;28;19998;-73
2022/06/02 06:14:35;;;;;;;;;;;10.00;99.90;;;;;;5115113;28;19904;-71
2022/06/02 06:17:19;;;;;;;;;;;10.10;99.90;;;;;;5112643;28;20406;-71
2022/06/02 06:19:56;;;;;;;;;;;10.10;99.90;;;;;;5111404;28;20322;-71
2022/06/02 06:22:31;;;;;;;;;;;10.00;99.90;;;;;;5112731;28;20732;-73
2022/06/02 06:25:16;;;;;;;;;;;10.10;99.90;;;;;;5112095;28;19903;-73
2022/06/02 06:27:45;;;;;;;;;;;10.20;99.90;;;;;;5111473;28;20368;-73
2022/06/02 06:30:26;;;;;;;;;;;10.40;99.90;;;;;;5111295;28;19903;-71
2022/06/02 06:32:57;;;;;;;;;;;10.60;99.90;;;;;;5111334;28;19911;-71
2022/06/02 06:35:32;;;;;;;;;;;10.90;99.90;;;;;;5111290;28;19915;-72
2022/06/02 06:38:03;;;;;;;;;;;11.20;99.90;;;;;;5114430;28;19949;-73
2022/06/02 06:40:44;;;;;;;;;;;11.30;99.90;;;;;;5114104;28;19911;-70
2022/06/02 06:43:17;;;;;;;;;;;11.50;99.90;;;;;;5114298;28;19998;-70
2022/06/02 06:45:43;;;;;;;;;;;;;;;;;;5114041;28;19911;-70
2022/06/02 06:48:09;;;;;;;;;;;;;;;;;;5113750;28;19904;-70
2022/06/02 06:50:35;;;;;;;;;;;;;;;;;;5113862;28;19904;-70
2022/06/02 06:53:01;;;;;;;;;;;;;;;;;;5113850;28;20491;-70
2022/06/02 06:55:44;;;;;;;;;;;11.90;99.90;;;;;;5113612;28;19908;-70
2022/06/02 06:58:28;;;;;;;;;;;13.00;99.90;;;;;;5113653;28;19972;-72
2022/06/02 07:01:00;;;;;;;;;;;13.30;99.90;;;;;;5113129;28;20057;-73
2022/06/02 07:03:28;;;;;;;;;;;13.50;99.90;;;;;;5110402;28;20356;-70
2022/06/02 07:06:04;;;;;;;;;;;13.90;99.90;;;;;;5110028;28;20040;-73
2022/06/02 07:08:38;;;;;;;;;;;14.10;99.90;;;;;;5112542;28;20415;-71
2022/06/02 07:14:03;;;;;;;;;;;14.70;99.90;;;;;;5113529;28;20279;-72
2022/06/02 07:16:39;;;;;;;;;;;15.00;99.90;;;;;;5112772;28;19986;-69
2022/06/02 07:19:32;;;;;;;;;;;15.20;99.90;;;;;;5113493;28;19907;-70
2022/06/02 07:22:07;;;;;;;;;;;15.50;99.90;;;;;;5109793;28;19950;-70
2022/06/02 07:24:38;;;;;;;;;;;15.60;99.90;;;;;;5112998;28;19908;-70
2022/06/02 07:27:22;;;;;;;;;;;15.80;99.90;;;;;;5112927;28;19907;-69
2022/06/02 07:29:53;;;;;;;;;;;15.90;99.90;;;;;;5112987;28;19911;-68
2022/06/02 07:32:30;;;;;;;;;;;16.00;99.90;;;;;;5113125;28;19908;-71
2022/06/02 07:34:56;;;;;;;;;;;16.10;99.90;;;;;;5112876;27;19951;-69
2022/06/02 07:37:28;;;;;;;;;;;16.10;99.90;;;;;;5121601;27;19935;-70
2022/06/02 07:40:13;;;;;;;;;;;16.30;99.90;;;;;;5130464;27;19914;-74
2022/06/02 07:42:38;;;;;;;;;;;16.40;99.90;;;;;;5118382;27;20271;-74
2022/06/02 07:45:19;;;;;;;;;;;16.80;99.90;;;;;;5113030;28;20447;-74
2022/06/02 07:47:57;;;;;;;;;;;17.20;99.90;;;;;;5112866;28;19903;-73
2022/06/02 07:50:27;;;;;;;;;;;17.40;99.90;;;;;;5112635;28;20333;-74
2022/06/02 07:53:12;;;;;;;;;;;18.00;99.90;;;;;;5113028;28;20318;-74
2022/06/02 07:55:44;;;;;;;;;;;18.50;99.90;;;;;;5112766;28;19940;-75
2022/06/02 07:58:09;;;;;;;;;;;19.10;99.90;;;;;;5112688;28;20287;-75
2022/06/02 08:00:42;;;;;;;;;;;19.10;99.90;;;;;;5112172;28;20392;-75
2022/06/02 08:03:22;;;;;;;;;;;19.20;99.90;;;;;;5109339;28;19903;-75
2022/06/02 08:05:48;;;;;;;;;;;18.90;99.90;;;;;;5109346;28;19928;-74
2022/06/02 08:08:21;;;;;;;;;;;18.60;99.90;;;;;;5112384;28;19911;-71
2022/06/02 08:10:56;;;;;;;;;;;18.20;99.90;;;;;;5112060;28;19964;-70
2022/06/02 08:13:22;;;;;;;;;;;18.10;99.90;;;;;;5112686;28;19903;-77
2022/06/02 08:15:53;;;;;;;;;;;17.90;99.90;;;;;;5112202;28;19919;-75
2022/06/02 08:18:39;;;;;;;;;;;17.90;99.90;;;;;;5100979;28;19914;-74
2022/06/02 08:21:16;;;;;;;;;;;18.00;99.90;;;;;;5069657;28;19958;-68
2022/06/02 08:24:01;;;;;;;;;;;17.80;99.30;;;;;;5089789;28;19908;-73
2022/06/02 08:26:33;;;;;;;;;;;18.10;99.10;;;;;;5088589;28;19912;-72
2022/06/02 08:29:07;;;;;;;;;;;18.30;99.90;;;;;;5088958;28;19965;-72
2022/06/02 08:31:32;;;;;;;;;;;18.40;99.90;;;;;;5091922;28;19914;-75
2022/06/02 08:34:07;;;;;;;;;;;18.50;99.40;;;;;;5091715;28;19908;-75
2022/06/02 08:36:40;;;;;;;;;;;19.00;98.80;;;;;;5090523;28;19923;-69
2022/06/02 08:39:12;;;;;;;;;;;19.90;97.40;;;;;;5091596;28;20564;-73
2022/06/02 08:42:00;;;;;;;;;;;20.60;96.90;;;;;;5091511;28;19904;-73
2022/06/02 08:44:41;;;;;;;;;;;21.30;94.90;;;;;;5082875;28;19970;-73
2022/06/02 08:47:06;;;;;;;;;;;22.50;93.90;;;;;;5091290;28;19907;-73
2022/06/02 08:49:45;;;;;;;;;;;22.40;90.90;;;;;;5100352;28;19929;-74
2022/06/02 08:52:29;;;;;;;;;;;22.60;88.50;;;;;;5109274;28;19904;-74
2022/06/02 08:55:13;;;;;;;;;;;23.30;87.60;;;;;;5108471;28;19904;-74
2022/06/02 08:57:57;;;;;;;;;;;24.10;81.50;;;;;;5111312;28;19908;-73
2022/06/02 09:00:23;;;;;;;;;;;24.50;80.20;;;;;;5111540;28;19911;-75
2022/06/02 09:03:07;;;;;;;;;;;24.40;75.10;;;;;;5111556;28;20320;-73
2022/06/02 09:05:35;;;;;;;;;;;24.10;76.90;;;;;;5111269;28;20344;-75
2022/06/02 09:08:01;;;;;;;;;;;22.90;71.70;;;;;;5111513;28;19904;-74
2022/06/02 09:10:43;;;;;;;;;;;23.30;77.50;;;;;;5111491;28;19973;-70
2022/06/02 09:13:17;;;;;;;;;;;24.20;77.80;;;;;;5110955;28;19903;-73
2022/06/02 09:15:55;;;;;;;;;;;24.10;73.90;;;;;;5111161;28;20002;-73
2022/06/02 09:18:39;;;;;;;;;;;24.60;69.70;;;;;;5111404;28;19918;-73
2022/06/02 09:21:14;;;;;;;;;;;24.60;68.30;;;;;;5089802;28;20334;-80
2022/06/02 09:23:59;;;;;;;;;;;25.60;65.40;;;;;;5088611;28;19904;-80
2022/06/02 09:26:28;;;;;;;;;;;26.00;65.80;;;;;;5088564;28;20368;-81
2022/06/02 09:29:00;;;;;;;;;;;26.40;62.20;;;;;;5091355;28;19908;-82
2022/06/02 09:31:37;;;;;;;;;;;26.70;56.90;;;;;;5089300;28;19917;-80
2022/06/02 09:34:08;;;;;;;;;;;25.40;51.50;;;;;;5098269;28;20268;-81
2022/06/02 09:36:59;;;;;;;;;;;25.60;55.00;;;;;;5108315;28;19961;-73
2022/06/02 09:39:33;;;;;;;;;;;26.20;50.90;;;;;;5107350;28;19941;-70
2022/06/02 09:42:11;;;;;;;;;;;27.00;49.40;;;;;;5107969;28;19951;-66
2022/06/02 09:44:52;;;;;;;;;;;27.80;47.70;;;;;;5107455;28;19915;-71
2022/06/02 09:47:29;;;;;;;;;;;27.70;42.20;;;;;;5107077;28;20668;-71
2022/06/02 09:49:57;;;;;;;;;;;28.50;44.70;;;;;;5107664;28;19912;-71
2022/06/02 09:52:23;;;;;;;;;;;29.00;40.40;;;;;;5107833;28;19946;-70
2022/06/02 09:54:57;;;;;;;;;;;29.40;38.90;;;;;;5107763;28;19943;-71
2022/06/02 10:00:19;;;;;;;;;;;28.90;32.70;;;;;;5107476;28;20423;-71
2022/06/02 10:03:04;;;;;;;;;;;29.50;33.70;;;;;;5108193;28;19904;-71
2022/06/02 10:05:42;;;;;;;;;;;28.80;34.50;;;;;;5107349;28;20364;-71
2022/06/02 10:08:19;;;;;;;;;;;29.50;34.00;;;;;;5107879;28;19908;-72
2022/06/02 10:11:00;;;;;;;;;;;29.60;34.40;;;;;;5108357;28;19968;-71
2022/06/02 10:13:26;;;;;;;;;;;29.80;33.60;;;;;;5107785;28;19904;-71
2022/06/02 10:16:03;;;;;;;;;;;30.80;36.30;;;;;;5108919;28;19926;-70
2022/06/02 10:18:35;;;;;;;;;;;30.90;29.70;;;;;;5109148;28;20394;-70
2022/06/02 10:21:20;;;;;;;;;;;28.90;30.60;;;;;;5108887;28;19943;-70
2022/06/02 10:24:03;;;;;;;;;;;27.80;32.80;;;;;;5107983;28;20400;-70
2022/06/02 10:26:47;;;;;;;;;;;27.30;34.20;;;;;;5107445;28;20007;-70
2022/06/02 10:29:26;;;;;;;;;;;27.30;34.50;;;;;;5107513;28;19904;-69
2022/06/02 10:32:10;;;;;;;;;;;29.30;34.90;;;;;;5107225;28;19968;-70
2022/06/02 10:34:42;;;;;;;;;;;31.10;33.30;;;;;;5107186;28;19904;-70
2022/06/02 10:37:30;;;;;;;;;;;30.80;29.10;;;;;;5106784;28;19915;-70
2022/06/02 10:40:05;;;;;;;;;;;31.70;28.50;;;;;;5098817;28;20380;-70
2022/06/02 10:42:41;;;;;;;;;;;30.40;29.70;;;;;;5107289;28;19962;-70
2022/06/02 10:45:12;;;;;;;;;;;28.60;29.30;;;;;;5107263;28;19915;-71
2022/06/02 10:47:56;;;;;;;;;;;29.10;32.60;;;;;;5107670;28;19912;-71
2022/06/02 10:50:41;;;;;;;;;;;28.30;32.60;;;;;;5107423;28;19994;-71
2022/06/02 10:53:13;;;;;;;;;;;26.40;31.40;;;;;;5111121;28;19904;-69
2022/06/02 10:55:58;;;;;;;;;;;26.20;34.50;;;;;;5110442;28;19916;-71
2022/06/02 10:58:38;;;;;;;;;;;25.30;37.90;;;;;;5110640;28;19929;-71
2022/06/02 11:01:06;;;;;;;;;;;24.80;36.00;;;;;;5111172;28;19920;-70
2022/06/02 11:03:40;;;;;;;;;;;25.00;36.50;;;;;;5110422;28;19916;-71
2022/06/02 11:06:25;;;;;;;;;;;24.70;37.10;;;;;;5110085;28;19903;-71
2022/06/02 11:08:56;;;;;;;;;;;26.70;34.40;;;;;;5109941;28;20010;-70
2022/06/02 11:11:41;;;;;;;;;;;28.90;33.20;;;;;;5110291;28;19915;-71
2022/06/02 11:14:22;;;;;;;;;;;30.00;29.10;;;;;;5110316;28;20014;-70
2022/06/02 11:16:56;;;;;;;;;;;31.30;29.50;;;;;;5109703;28;20416;-70
2022/06/02 11:19:46;;;;;;;;;;;31.50;28.20;;;;;;5109862;28;19912;-71
2022/06/02 11:22:11;;;;;;;;;;;32.70;25.30;;;;;;5109390;28;20395;-70
2022/06/02 11:24:40;;;;;;;;;;;33.20;26.60;;;;;;5109358;28;19993;-70
2022/06/02 11:27:05;;;;;;;;;;;32.00;24.50;;;;;;5107587;28;20295;-71
2022/06/02 11:29:49;;;;;;;;;;;30.60;26.10;;;;;;5109915;28;20355;-71
2022/06/02 11:32:33;;;;;;;;;;;30.10;26.40;;;;;;5110252;28;19911;-71
2022/06/02 11:35:17;;;;;;;;;;;31.70;27.50;;;;;;5108234;28;19911;-70
2022/06/02 11:37:52;;;;;;;;;;;32.80;25.60;;;;;;5108281;28;19920;-70
2022/06/02 11:40:24;;;;;;;;;;;32.60;25.80;;;;;;5107798;28;19930;-63
2022/06/02 11:43:08;;;;;;;;;;;33.10;24.20;;;;;;5108073;28;19908;-62
2022/06/02 11:45:52;;;;;;;;;;;33.70;23.20;;;;;;5107536;28;20035;-63
2022/06/02 11:48:24;;;;;;;;;;;35.00;22.80;;;;;;5108224;28;19907;-63
2022/06/02 11:50:55;;;;;;;;;;;32.20;22.80;;;;;;5109065;28;19911;-63
2022/06/02 11:53:21;;;;;;;;;;;31.80;23.80;;;;;;5109280;28;20040;-63
2022/06/02 11:55:54;;;;;;;;;;;31.80;23.70;;;;;;5109146;28;20002;-63
2022/06/02 11:58:38;;;;;;;;;;;31.70;23.80;;;;;;5109361;28;19911;-63
2022/06/02 12:01:14;;;;;;;;;;;31.20;23.80;;;;;;5109125;28;19963;-64
2022/06/02 12:04:00;;;;;;;;;;;27.50;25.90;;;;;;5109265;28;19911;-63
2022/06/02 12:06:45;;;;;;;;;;;28.20;28.30;;;;;;5109103;28;20574;-63
2022/06/02 12:09:32;;;;;;;;;;;29.70;27.00;;;;;;5109170;28;19903;-64
2022/06/02 12:12:07;;;;;;;;;;;31.80;27.50;;;;;;5108796;28;19912;-63
2022/06/02 12:14:32;;;;;;;;;;;32.90;25.30;;;;;;5108422;27;20376;-64
2022/06/02 12:17:01;;;;;;;;;;;32.80;22.40;;;;;;5108561;28;19923;-62
2022/06/02 12:19:40;;;;;;;;;;;33.50;22.40;;;;;;5108534;27;19904;-63
2022/06/02 12:22:12;;;;;;;;;;;32.10;21.50;;;;;;5107786;28;19907;-64
2022/06/02 12:24:38;;;;;;;;;;;32.20;22.60;;;;;;5108518;28;20025;-64
2022/06/02 12:27:24;;;;;;;;;;;33.40;22.90;;;;;;5108618;28;20100;-65
2022/06/02 12:29:55;;;;;;;;;;;34.40;20.90;;;;;;5108762;28;19903;-67
2022/06/02 12:32:40;;;;;;;;;;;34.50;20.70;;;;;;5109179;28;20076;-67
2022/06/02 12:35:08;;;;;;;;;;;33.80;20.20;;;;;;5107254;28;19908;-66
2022/06/02 12:37:56;;;;;;;;;;;30.80;22.30;;;;;;5108455;28;20292;-67
2022/06/02 12:40:34;;;;;;;;;;;28.20;23.50;;;;;;5108155;28;19912;-68
2022/06/02 12:42:59;;;;;;;;;;;26.80;26.10;;;;;;5108679;28;19904;-67
2022/06/02 12:45:25;;;;;;;;;;;27.70;27.00;;;;;;5108344;28;19915;-70
2022/06/02 12:48:20;;;;;;;;;;;28.90;26.20;;;;;;5107890;28;19915;-67
2022/06/02 12:51:00;;;;;;;;;;;29.20;23.80;;;;;;5052139;28;19943;-68
2022/06/02 12:53:45;;;;;;;;;;;30.30;23.50;;;;;;5108539;28;20347;-68
2022/06/02 12:56:10;;;;;;;;;;;31.00;22.80;;;;;;5108126;28;19918;-68
2022/06/02 12:58:42;;;;;;;;;;;31.60;20.90;;;;;;5108290;28;19904;-66
2022/06/02 13:01:26;;;;;;;;;;;31.70;21.80;;;;;;5107821;28;19955;-67
2022/06/02 13:04:04;;;;;;;;;;;32.90;20.50;;;;;;5108074;28;19919;-67
2022/06/02 13:06:49;;;;;;;;;;;32.40;20.50;;;;;;5108047;28;19915;-66
2022/06/02 13:09:34;;;;;;;;;;;31.90;20.70;;;;;;5089998;28;19956;-66
2022/06/02 13:12:26;;;;;;;;;;;31.50;19.60;;;;;;5108266;28;19943;-66
2022/06/02 13:15:16;;;;;;;;;;;31.30;21.60;;;;;;5107464;28;19928;-66
2022/06/02 13:17:42;;;;;;;;;;;29.50;22.40;;;;;;5097575;28;19912;-67
2022/06/02 13:20:07;;;;;;;;;;;29.30;21.80;;;;;;5107891;28;20037;-63
2022/06/02 13:22:51;;;;;;;;;;;28.40;21.50;;;;;;5108295;28;20707;-63
2022/06/02 13:25:36;;;;;;;;;;;28.00;21.70;;;;;;5107900;28;20443;-66
2022/06/02 13:28:16;;;;;;;;;;;29.40;22.20;;;;;;5108344;28;19970;-72
2022/06/02 13:31:00;;;;;;;;;;;27.80;21.50;;;;;;5108107;28;19956;-64
2022/06/02 13:33:44;;;;;;;;;;;26.90;22.00;;;;;;5107784;28;19904;-64
2022/06/02 13:36:10;;;;;;;;;;;26.50;24.30;;;;;;5107559;28;19922;-64
2022/06/02 13:38:54;;;;;;;;;;;27.20;23.60;;;;;;5107809;28;19903;-64
2022/06/02 13:41:20;;;;;;;;;;;27.70;22.60;;;;;;5107837;28;19912;-65
2022/06/02 13:43:46;;;;;;;;;;;28.40;22.20;;;;;;5107786;28;19908;-65
2022/06/02 13:46:28;;;;;;;;;;;27.30;22.40;;;;;;5107682;28;19950;-64
2022/06/02 13:49:09;;;;;;;;;;;27.00;21.00;;;;;;5107539;28;20336;-64
2022/06/02 13:51:47;;;;;;;;;;;27.10;23.70;;;;;;5107808;28;19951;-64
2022/06/02 14:00:08;;;;;;;;;;;27.90;22.20;;;;;;5107446;28;19918;-65
2022/06/02 14:02:34;;;;;;;;;;;26.50;20.30;;;;;;5107316;28;19904;-65
2022/06/02 14:05:26;;;;;;;;;;;26.30;22.80;;;;;;5107389;28;19911;-65
2022/06/02 14:08:00;;;;;;;;;;;26.80;23.30;;;;;;5103380;28;20356;-65
2022/06/02 14:10:44;;;;;;;;;;;27.50;23.20;;;;;;5107250;28;19915;-64
2022/06/02 14:13:13;;;;;;;;;;;27.60;22.90;;;;;;5107513;28;19904;-65
2022/06/02 14:15:48;;;;;;;;;;;26.20;20.60;;;;;;5107763;28;19938;-65
2022/06/02 14:18:36;;;;;;;;;;;25.90;23.70;;;;;;5107762;28;19907;-65
2022/06/02 14:21:12;;;;;;;;;;;26.00;21.80;;;;;;5078018;28;20360;-64
2022/06/02 14:23:37;;;;;;;;;;;24.90;22.60;;;;;;5107466;28;19914;-64
2022/06/02 14:26:20;;;;;;;;;;;24.90;22.80;;;;;;5110097;28;19991;-64
2022/06/02 14:28:48;;;;;;;;;;;24.40;23.20;;;;;;5110972;28;20372;-64
2022/06/02 14:31:49;;;;;;;;;;;24.40;23.90;;;;;;5111240;28;19904;-65
2022/06/02 14:34:15;;;;;;;;;;;24.70;23.50;;;;;;5048068;28;19913;-65
2022/06/02 14:36:43;;;;;;;;;;;24.30;23.40;;;;;;5097314;28;20260;-65
2022/06/02 14:39:32;;;;;;;;;;;23.90;22.70;;;;;;5111275;28;20003;-64
2022/06/02 14:41:57;;;;;;;;;;;23.20;25.50;;;;;;5109462;28;19904;-65
2022/06/02 14:44:28;;;;;;;;;;;23.10;24.80;;;;;;5111242;28;19908;-65
2022/06/02 14:47:14;;;;;;;;;;;23.20;26.70;;;;;;5111129;28;20413;-65
2022/06/02 14:49:55;;;;;;;;;;;22.90;25.30;;;;;;5110892;28;19915;-65
2022/06/02 14:52:39;;;;;;;;;;;23.00;27.00;;;;;;5111090;28;19911;-65
2022/06/02 14:55:31;;;;;;;;;;;22.30;25.60;;;;;;5110357;28;19904;-64
2022/06/02 14:58:15;;;;;;;;;;;22.00;26.90;;;;;;5107528;28;20441;-65
2022/06/02 15:00:40;;;;;;;;;;;22.20;28.10;;;;;;5110734;28;20276;-65
2022/06/02 15:03:32;;;;;;;;;;;21.80;26.60;;;;;;5110006;28;19915;-65
2022/06/02 15:05:59;;;;;;;;;;;21.80;27.20;;;;;;5105682;28;19910;-65
2022/06/02 15:08:43;;;;;;;;;;;21.70;28.10;;;;;;5110904;28;19907;-65
2022/06/02 15:11:27;;;;;;;;;;;21.90;28.00;;;;;;5110402;28;19905;-65
2022/06/02 15:16:22;;;;;;;;;;;21.70;26.80;;;;;;5110566;28;20337;-65
2022/06/02 15:18:47;;;;;;;;;;;21.70;27.70;;;;;;5092026;28;19969;-64
2022/06/02 15:21:28;;;;;;;;;;;21.80;28.10;;;;;;5109950;28;19911;-66
2022/06/02 15:23:57;;;;;;;;;;;21.60;27.90;;;;;;5110348;28;20419;-65
2022/06/02 15:26:41;;;;;;;;;;;21.40;28.20;;;;;;5109988;28;19916;-65
2022/06/02 15:29:07;;;;;;;;;;;21.40;28.50;;;;;;5110276;27;19961;-65
2022/06/02 15:31:35;;;;;;;;;;;21.40;28.00;;;;;;5109948;28;19972;-65
2022/06/02 15:34:19;;;;;;;;;;;21.40;25.70;;;;;;5109870;28;20291;-64
2022/06/02 15:37:03;;;;;;;;;;;21.30;25.40;;;;;;5107345;28;19916;-65
2022/06/02 15:39:41;;;;;;;;;;;21.00;26.80;;;;;;5109993;28;19908;-65